createdAt,value
2023-01-21T00:00:29.767Z,0.35
2023-01-21T00:01:11.897Z,0.26
2023-01-21T00:01:53.666Z,0.26
2023-01-21T00:02:35.372Z,0.37
2023-01-21T00:03:17.156Z,0.37
2023-01-21T00:03:59.989Z,0.30
2023-01-21T00:04:41.613Z,0.24
2023-01-21T00:05:26.263Z,0.24
2023-01-21T00:06:08.596Z,0.23
2023-01-21T00:06:50.269Z,0.33
2023-01-21T00:07:31.982Z,0.26
2023-01-21T00:08:16.406Z,0.24
2023-01-21T00:09:00.970Z,0.24
2023-01-21T00:09:42.674Z,0.28
2023-01-21T00:10:24.349Z,0.36
2023-01-21T00:11:14.710Z,0.28
2023-01-21T00:11:57.467Z,0.38
2023-01-21T00:12:39.190Z,0.31
2023-01-21T00:13:21.287Z,0.26
2023-01-21T00:14:02.984Z,0.35
2023-01-21T00:14:44.923Z,0.22
2023-01-21T00:15:26.736Z,0.17
2023-01-21T00:16:09.104Z,0.26
2023-01-21T00:16:50.794Z,0.13
2023-01-21T00:17:35.856Z,0.26
2023-01-21T00:18:17.581Z,0.21
2023-01-21T00:18:59.266Z,0.27
2023-01-21T00:19:40.895Z,0.11
2023-01-21T00:20:22.627Z,0.20
2023-01-21T00:21:04.342Z,-0.01
2023-01-21T00:21:46.644Z,0.14
2023-01-21T00:22:28.866Z,0.04
2023-01-21T00:23:10.961Z,0.13
2023-01-21T00:23:52.713Z,0.15
2023-01-21T00:24:34.360Z,0.10
2023-01-21T00:25:16.088Z,0.08
2023-01-21T00:26:02.057Z,0.08
2023-01-21T00:26:43.885Z,0.08
2023-01-21T00:27:25.658Z,0.06
2023-01-21T00:28:07.391Z,0.04
2023-01-21T00:28:49.176Z,0.02
2023-01-21T00:29:30.851Z,0.02
2023-01-21T00:30:12.954Z,-0.07
2023-01-21T00:31:02.357Z,-0.11
2023-01-21T00:31:44.525Z,-0.06
2023-01-21T00:32:26.256Z,-0.07
2023-01-21T00:33:08.142Z,-0.15
2023-01-21T00:33:50.244Z,-0.07
2023-01-21T00:34:31.936Z,-0.06
2023-01-21T00:35:13.730Z,-0.21
2023-01-21T00:36:07.917Z,-0.06
2023-01-21T00:36:49.681Z,-0.08
2023-01-21T00:37:34.110Z,-0.21
2023-01-21T00:38:15.772Z,-0.23
2023-01-21T00:38:57.665Z,-0.16
2023-01-21T00:39:42.823Z,-0.07
2023-01-21T00:40:24.761Z,-0.13
2023-01-21T00:41:11.590Z,-0.17
2023-01-21T00:41:53.335Z,-0.08
2023-01-21T00:42:35.109Z,-0.13
2023-01-21T00:43:16.746Z,-0.06
2023-01-21T00:43:58.453Z,-0.17
2023-01-21T00:44:40.122Z,-0.06
2023-01-21T00:45:21.763Z,-0.26
2023-01-21T00:46:03.989Z,-0.13
2023-01-21T00:46:45.739Z,-0.27
2023-01-21T00:47:27.433Z,-0.08
2023-01-21T00:48:09.106Z,-0.08
2023-01-21T00:48:50.785Z,-0.29
2023-01-21T00:49:32.696Z,-0.24
2023-01-21T00:50:14.495Z,-0.21
2023-01-21T00:51:00.415Z,-0.03
2023-01-21T00:51:42.224Z,-0.12
2023-01-21T00:52:23.895Z,-0.02
2023-01-21T00:53:05.589Z,-0.13
2023-01-21T00:53:47.323Z,-0.01
2023-01-21T00:54:34.554Z,0.03
2023-01-21T00:55:16.326Z,0.06
2023-01-21T00:56:02.165Z,0.13
2023-01-21T00:56:44.073Z,0.11
2023-01-21T00:57:25.796Z,-0.05
2023-01-21T00:58:07.480Z,0.13
2023-01-21T00:58:49.363Z,0.14
2023-01-21T00:59:31.260Z,0.00
2023-01-21T01:00:15.228Z,0.15
2023-01-21T01:01:05.926Z,0.15
2023-01-21T01:01:47.612Z,0.01
2023-01-21T01:02:29.288Z,0.15
2023-01-21T01:03:11.176Z,0.08
2023-01-21T01:03:52.840Z,0.12
2023-01-21T01:04:34.542Z,0.03
2023-01-21T01:05:16.517Z,0.17
2023-01-21T01:06:21.794Z,0.17
2023-01-21T01:07:03.587Z,0.09
2023-01-21T01:07:47.563Z,0.11
2023-01-21T01:08:29.308Z,0.06
2023-01-21T01:09:13.905Z,0.17
2023-01-21T01:09:55.520Z,0.27
2023-01-21T01:10:37.864Z,0.29
2023-01-21T01:11:21.587Z,0.26
2023-01-21T01:12:03.721Z,0.14
2023-01-21T01:12:45.512Z,0.03
2023-01-21T01:13:28.152Z,0.21
2023-01-21T01:14:09.898Z,0.16
2023-01-21T01:14:51.585Z,0.15
2023-01-21T01:15:33.293Z,0.01
2023-01-21T01:16:16.100Z,0.15
2023-01-21T01:16:57.848Z,0.15
2023-01-21T01:17:39.584Z,0.12
2023-01-21T01:18:22.470Z,0.06
2023-01-21T01:19:04.186Z,0.07
2023-01-21T01:19:45.930Z,0.11
2023-01-21T01:20:27.662Z,-0.10
2023-01-21T01:21:15.346Z,0.01
2023-01-21T01:21:57.017Z,-0.01
2023-01-21T01:22:38.644Z,0.00
2023-01-21T01:23:20.399Z,-0.14
2023-01-21T01:24:03.243Z,-0.08
2023-01-21T01:24:44.983Z,-0.19
2023-01-21T01:25:29.434Z,-0.30
2023-01-21T01:26:13.782Z,-0.09
2023-01-21T01:26:55.459Z,-0.19
2023-01-21T01:27:37.132Z,-0.19
2023-01-21T01:28:18.808Z,-0.19
2023-01-21T01:29:00.584Z,-0.10
2023-01-21T01:29:42.317Z,-0.16
2023-01-21T01:30:26.654Z,-0.09
2023-01-21T01:31:13.087Z,-0.04
2023-01-21T01:31:57.534Z,-0.27
2023-01-21T01:32:39.211Z,-0.04
2023-01-21T01:33:21.273Z,-0.10
2023-01-21T01:34:02.898Z,-0.15
2023-01-21T01:34:45.023Z,-0.08
2023-01-21T01:35:26.938Z,-0.11
2023-01-21T01:36:13.339Z,-0.26
2023-01-21T01:36:55.032Z,-0.15
2023-01-21T01:37:36.724Z,-0.41
2023-01-21T01:38:21.262Z,-0.19
2023-01-21T01:39:02.870Z,-0.37
2023-01-21T01:39:44.578Z,-0.31
2023-01-21T01:40:26.238Z,-0.32
2023-01-21T01:41:08.814Z,-0.24
2023-01-21T01:41:50.455Z,-0.35
2023-01-21T01:42:32.111Z,-0.37
2023-01-21T01:43:21.959Z,-0.27
2023-01-21T01:44:06.282Z,-0.29
2023-01-21T01:45:01.830Z,-0.34
2023-01-21T01:45:44.127Z,-0.39
2023-01-21T01:46:28.668Z,-0.39
2023-01-21T01:47:10.658Z,-0.31
2023-01-21T01:48:00.812Z,-0.35
2023-01-21T01:48:54.771Z,-0.75
2023-01-21T01:49:36.812Z,-0.42
2023-01-21T01:50:20.032Z,-0.84
2023-01-21T01:51:04.539Z,-0.45
2023-01-21T01:51:54.992Z,-0.40
2023-01-21T01:52:37.100Z,-0.56
2023-01-21T01:53:19.877Z,-0.53
2023-01-21T01:54:02.601Z,-0.54
2023-01-21T01:54:49.900Z,-0.44
2023-01-21T01:55:35.365Z,-0.68
2023-01-21T01:56:17.078Z,-0.61
2023-01-21T01:57:01.733Z,-0.64
2023-01-21T01:57:48.171Z,-0.57
2023-01-21T01:58:31.474Z,-0.53
2023-01-21T01:59:13.586Z,-0.50
2023-01-21T01:59:55.218Z,-0.59
2023-01-21T02:00:36.997Z,-0.51
2023-01-21T02:01:18.773Z,-0.55
2023-01-21T02:02:06.081Z,-0.50
2023-01-21T02:03:07.964Z,-0.51
2023-01-21T02:03:58.454Z,-0.59
2023-01-21T02:04:47.948Z,-0.53
2023-01-21T02:05:29.708Z,-0.55
2023-01-21T02:06:16.273Z,-0.55
2023-01-21T02:06:58.161Z,-0.65
2023-01-21T02:07:44.414Z,-0.57
2023-01-21T02:08:27.414Z,-0.58
2023-01-21T02:09:09.088Z,-0.64
2023-01-21T02:09:53.635Z,-0.78
2023-01-21T02:10:36.216Z,-0.63
2023-01-21T02:11:19.859Z,-0.66
2023-01-21T02:12:03.717Z,-0.69
2023-01-21T02:12:45.483Z,-0.73
2023-01-21T02:13:30.186Z,-0.91
2023-01-21T02:14:12.115Z,-0.79
2023-01-21T02:14:53.839Z,-0.82
2023-01-21T02:15:38.442Z,-0.84
2023-01-21T02:16:41.964Z,-0.86
2023-01-21T02:17:32.748Z,-0.96
2023-01-21T02:18:27.875Z,-0.93
2023-01-21T02:19:47.001Z,-0.93
2023-01-21T02:21:09.564Z,-0.96
2023-01-21T02:21:53.909Z,-1.00
2023-01-21T02:22:50.934Z,-1.01
2023-01-21T02:24:07.921Z,-1.16
2023-01-21T02:25:34.403Z,-1.07
2023-01-21T02:26:31.210Z,-1.12
2023-01-21T02:27:36.038Z,-1.13
2023-01-21T02:28:29.810Z,-1.16
2023-01-21T02:29:31.280Z,-1.16
2023-01-21T02:30:30.533Z,-1.17
2023-01-21T02:31:44.019Z,-1.19
2023-01-21T02:32:50.989Z,-1.21
2023-01-21T02:33:54.420Z,-1.22
2023-01-21T02:34:55.220Z,-1.21
2023-01-21T02:35:48.732Z,-1.23
2023-01-21T02:36:43.337Z,-1.22
2023-01-21T02:38:00.089Z,-1.21
2023-01-21T02:38:46.248Z,-1.22
2023-01-21T02:40:02.073Z,-1.23
2023-01-21T02:41:03.173Z,-1.42
2023-01-21T02:41:53.882Z,-1.23
2023-01-21T02:42:41.647Z,-1.25
2023-01-21T02:43:52.306Z,-1.27
2023-01-21T02:44:37.667Z,-1.25
2023-01-21T02:45:26.267Z,-1.31
2023-01-21T02:46:40.066Z,-1.25
2023-01-21T02:47:33.327Z,-1.36
2023-01-21T02:48:20.017Z,-1.25
2023-01-21T02:49:11.589Z,-1.27
2023-01-21T02:49:59.620Z,-1.26
2023-01-21T02:50:52.430Z,-1.27
2023-01-21T02:51:35.442Z,-1.34
2023-01-21T02:52:22.829Z,-1.33
2023-01-21T02:53:05.150Z,-1.43
2023-01-21T02:53:47.674Z,-1.47
2023-01-21T02:54:41.220Z,-1.30
2023-01-21T02:55:26.867Z,-1.30
2023-01-21T02:56:14.047Z,-1.29
2023-01-21T02:56:55.766Z,-1.42
2023-01-21T02:57:43.261Z,-1.37
2023-01-21T02:58:29.003Z,-1.33
2023-01-21T02:59:11.226Z,-1.35
2023-01-21T02:59:55.728Z,-1.38
2023-01-21T03:01:06.350Z,-1.50
2023-01-21T03:02:25.773Z,-1.40
2023-01-21T03:03:28.808Z,-1.41
2023-01-21T03:04:19.657Z,-1.47
2023-01-21T03:05:29.552Z,-1.61
2023-01-21T03:06:13.777Z,-1.45
2023-01-21T03:07:20.545Z,-1.59
2023-01-21T03:08:09.861Z,-1.55
2023-01-21T03:08:55.885Z,-1.69
2023-01-21T03:09:37.688Z,-1.49
2023-01-21T03:10:24.315Z,-1.41
2023-01-21T03:11:17.740Z,-1.34
2023-01-21T03:12:11.047Z,-1.47
2023-01-21T03:12:53.786Z,-1.26
2023-01-21T03:14:08.436Z,-1.32
2023-01-21T03:15:28.135Z,-1.21
2023-01-21T03:16:32.686Z,-1.33
2023-01-21T03:17:27.303Z,-1.25
2023-01-21T03:18:18.632Z,-1.57
2023-01-21T03:19:06.146Z,-1.37
2023-01-21T03:20:02.878Z,-1.50
2023-01-21T03:20:49.457Z,-1.52
2023-01-21T03:21:33.381Z,-1.37
2023-01-21T03:22:19.706Z,-1.38
2023-01-21T03:23:10.763Z,-1.61
2023-01-21T03:23:53.865Z,-1.42
2023-01-21T03:24:39.863Z,-1.43
2023-01-21T03:25:22.717Z,-1.51
2023-01-21T03:26:07.148Z,-1.58
2023-01-21T03:26:52.475Z,-1.67
2023-01-21T03:27:37.671Z,-1.40
2023-01-21T03:28:26.227Z,-1.41
2023-01-21T03:29:13.882Z,-1.39
2023-01-21T03:30:02.436Z,-1.53
2023-01-21T03:30:47.409Z,-1.39
2023-01-21T03:31:33.369Z,-1.41
2023-01-21T03:32:18.579Z,-1.43
2023-01-21T03:33:02.088Z,-1.45
2023-01-21T03:33:46.891Z,-1.48
2023-01-21T03:34:33.220Z,-1.37
2023-01-21T03:35:20.976Z,-1.55
2023-01-21T03:36:13.759Z,-1.41
2023-01-21T03:37:07.750Z,-1.37
2023-01-21T03:37:58.860Z,-1.40
2023-01-21T03:38:48.122Z,-1.53
2023-01-21T03:40:03.832Z,-1.41
2023-01-21T03:40:56.523Z,-1.41
2023-01-21T03:41:39.644Z,-1.43
2023-01-21T03:42:22.829Z,-1.41
2023-01-21T03:43:04.652Z,-1.63
2023-01-21T03:43:46.622Z,-1.43
2023-01-21T03:44:28.274Z,-1.65
2023-01-21T03:45:10.631Z,-1.53
2023-01-21T03:46:15.952Z,-1.50
2023-01-21T03:47:05.827Z,-1.54
2023-01-21T03:47:55.018Z,-1.50
2023-01-21T03:48:45.969Z,-1.50
2023-01-21T03:49:33.710Z,-1.46
2023-01-21T03:50:26.577Z,-1.46
2023-01-21T03:51:13.786Z,-1.45
2023-01-21T03:51:59.761Z,-1.47
2023-01-21T03:52:43.189Z,-1.50
2023-01-21T03:53:25.271Z,-1.51
2023-01-21T03:54:06.974Z,-1.51
2023-01-21T03:54:49.239Z,-1.55
2023-01-21T03:55:30.874Z,-1.71
2023-01-21T03:56:15.247Z,-1.57
2023-01-21T03:56:59.511Z,-1.59
2023-01-21T03:57:41.367Z,-1.62
2023-01-21T03:58:22.970Z,-1.66
2023-01-21T03:59:04.616Z,-1.67
2023-01-21T03:59:46.762Z,-1.90
2023-01-21T04:00:28.524Z,-1.79
2023-01-21T04:01:11.264Z,-1.73
2023-01-21T04:01:53.030Z,-1.74
2023-01-21T04:02:34.763Z,-1.78
2023-01-21T04:03:16.476Z,-1.81
2023-01-21T04:03:58.164Z,-1.81
2023-01-21T04:04:39.844Z,-1.97
2023-01-21T04:05:21.542Z,-1.85
2023-01-21T04:06:03.208Z,-1.91
2023-01-21T04:06:44.923Z,-1.96
2023-01-21T04:07:29.747Z,-2.22
2023-01-21T04:08:11.389Z,-1.91
2023-01-21T04:08:53.058Z,-1.93
2023-01-21T04:09:34.770Z,-1.99
2023-01-21T04:10:17.611Z,-1.99
2023-01-21T04:10:59.460Z,-2.01
2023-01-21T04:11:41.117Z,-2.03
2023-01-21T04:12:23.072Z,-2.06
2023-01-21T04:13:10.066Z,-2.26
2023-01-21T04:13:51.690Z,-2.08
2023-01-21T04:14:35.947Z,-2.17
2023-01-21T04:15:18.927Z,-2.21
2023-01-21T04:16:03.074Z,-2.09
2023-01-21T04:16:44.761Z,-2.05
2023-01-21T04:17:28.257Z,-2.08
2023-01-21T04:18:09.916Z,-2.21
2023-01-21T04:18:54.178Z,-2.03
2023-01-21T04:19:35.849Z,-1.99
2023-01-21T04:20:18.142Z,-2.08
2023-01-21T04:21:00.159Z,-1.95
2023-01-21T04:21:41.856Z,-1.93
2023-01-21T04:22:23.488Z,-1.95
2023-01-21T04:23:05.143Z,-2.13
2023-01-21T04:23:46.765Z,-1.89
2023-01-21T04:24:28.461Z,-2.01
2023-01-21T04:25:10.254Z,-1.84
2023-01-21T04:25:54.723Z,-1.82
2023-01-21T04:26:36.331Z,-1.84
2023-01-21T04:27:17.936Z,-2.00
2023-01-21T04:27:59.903Z,-1.79
2023-01-21T04:28:42.603Z,-1.79
2023-01-21T04:29:24.260Z,-1.91
2023-01-21T04:30:06.641Z,-1.98
2023-01-21T04:30:48.825Z,-1.82
2023-01-21T04:31:30.760Z,-1.82
2023-01-21T04:32:12.712Z,-1.85
2023-01-21T04:32:54.341Z,-1.87
2023-01-21T04:33:35.951Z,-1.65
2023-01-21T04:34:17.700Z,-1.65
2023-01-21T04:34:59.394Z,-1.64
2023-01-21T04:35:41.141Z,-1.82
2023-01-21T04:36:22.876Z,-1.65
2023-01-21T04:37:06.808Z,-1.62
2023-01-21T04:37:48.485Z,-1.73
2023-01-21T04:38:30.370Z,-1.58
2023-01-21T04:39:12.144Z,-1.66
2023-01-21T04:39:53.849Z,-1.87
2023-01-21T04:40:38.231Z,-1.82
2023-01-21T04:41:19.882Z,-1.66
2023-01-21T04:42:01.585Z,-1.81
2023-01-21T04:42:43.356Z,-1.63
2023-01-21T04:43:25.290Z,-1.70
2023-01-21T04:44:07.116Z,-1.82
2023-01-21T04:44:48.761Z,-1.74
2023-01-21T04:45:30.397Z,-1.59
2023-01-21T04:46:12.065Z,-1.57
2023-01-21T04:46:53.688Z,-1.58
2023-01-21T04:47:35.336Z,-1.71
2023-01-21T04:48:17.534Z,-1.78
2023-01-21T04:48:59.358Z,-1.58
2023-01-21T04:49:41.021Z,-1.75
2023-01-21T04:50:22.675Z,-1.62
2023-01-21T04:51:06.344Z,-1.71
2023-01-21T04:51:48.005Z,-1.72
2023-01-21T04:52:30.379Z,-1.90
2023-01-21T04:53:12.068Z,-1.65
2023-01-21T04:53:53.736Z,-1.77
2023-01-21T04:54:35.438Z,-1.85
2023-01-21T04:55:19.795Z,-1.68
2023-01-21T04:56:01.488Z,-1.74
2023-01-21T04:56:43.134Z,-1.67
2023-01-21T04:57:24.913Z,-1.77
2023-01-21T04:58:06.685Z,-1.68
2023-01-21T04:58:48.327Z,-1.65
2023-01-21T04:59:30.046Z,-1.79
2023-01-21T05:00:12.144Z,-1.63
2023-01-21T05:00:55.368Z,-1.77
2023-01-21T05:01:37.116Z,-1.61
2023-01-21T05:02:19.057Z,-1.62
2023-01-21T05:03:00.764Z,-1.76
2023-01-21T05:03:42.492Z,-1.58
2023-01-21T05:04:24.144Z,-1.57
2023-01-21T05:05:06.411Z,-1.65
2023-01-21T05:05:48.133Z,-1.75
2023-01-21T05:06:32.614Z,-1.66
2023-01-21T05:07:17.344Z,-1.65
2023-01-21T05:07:59.188Z,-1.53
2023-01-21T05:08:40.828Z,-1.54
2023-01-21T05:09:22.542Z,-1.53
2023-01-21T05:10:04.777Z,-1.57
2023-01-21T05:10:46.521Z,-1.59
2023-01-21T05:11:28.303Z,-1.57
2023-01-21T05:12:11.897Z,-1.58
2023-01-21T05:12:53.689Z,-1.53
2023-01-21T05:13:35.398Z,-1.68
2023-01-21T05:14:17.039Z,-1.67
2023-01-21T05:14:58.752Z,-1.79
2023-01-21T05:15:43.333Z,-1.59
2023-01-21T05:16:25.078Z,-1.68
2023-01-21T05:17:06.681Z,-1.77
2023-01-21T05:17:48.323Z,-1.66
2023-01-21T05:18:32.267Z,-1.67
2023-01-21T05:19:15.325Z,-1.65
2023-01-21T05:19:56.982Z,-1.70
2023-01-21T05:20:38.638Z,-1.68
2023-01-21T05:21:22.939Z,-1.68
2023-01-21T05:22:04.559Z,-1.69
2023-01-21T05:22:47.992Z,-1.81
2023-01-21T05:23:29.899Z,-1.74
2023-01-21T05:24:11.705Z,-1.67
2023-01-21T05:24:56.013Z,-1.85
2023-01-21T05:25:37.647Z,-1.84
2023-01-21T05:26:19.469Z,-1.87
2023-01-21T05:27:01.389Z,-1.74
2023-01-21T05:27:43.049Z,-1.83
2023-01-21T05:28:24.714Z,-1.92
2023-01-21T05:29:06.403Z,-1.89
2023-01-21T05:29:48.575Z,-1.76
2023-01-21T05:30:30.278Z,-1.75
2023-01-21T05:31:12.056Z,-1.81
2023-01-21T05:31:53.820Z,-1.81
2023-01-21T05:32:38.483Z,-1.76
2023-01-21T05:33:25.996Z,-1.80
2023-01-21T05:34:07.666Z,-1.72
2023-01-21T05:34:49.348Z,-1.75
2023-01-21T05:35:31.081Z,-1.88
2023-01-21T05:36:13.059Z,-1.66
2023-01-21T05:36:54.705Z,-1.61
2023-01-21T05:37:36.315Z,-1.62
2023-01-21T05:38:18.038Z,-1.62
2023-01-21T05:38:59.659Z,-1.62
2023-01-21T05:39:41.377Z,-1.69
2023-01-21T05:40:23.081Z,-1.55
2023-01-21T05:41:05.090Z,-1.57
2023-01-21T05:41:46.784Z,-1.59
2023-01-21T05:42:28.462Z,-1.60
2023-01-21T05:43:10.156Z,-1.62
2023-01-21T05:43:51.859Z,-1.68
2023-01-21T05:44:33.542Z,-1.79
2023-01-21T05:45:15.287Z,-1.71
2023-01-21T05:45:59.346Z,-1.86
2023-01-21T05:46:41.039Z,-1.78
2023-01-21T05:47:25.441Z,-1.78
2023-01-21T05:48:07.055Z,-1.75
2023-01-21T05:48:49.535Z,-1.75
2023-01-21T05:49:33.993Z,-1.74
2023-01-21T05:50:16.248Z,-1.51
2023-01-21T05:50:58.572Z,-1.42
2023-01-21T05:51:40.347Z,-1.32
2023-01-21T05:52:22.079Z,-1.28
2023-01-21T05:53:04.692Z,-1.38
2023-01-21T05:53:46.559Z,-1.13
2023-01-21T05:54:28.396Z,-1.19
2023-01-21T05:55:10.266Z,-1.04
2023-01-21T05:55:53.978Z,-1.01
2023-01-21T05:56:35.834Z,-1.21
2023-01-21T05:57:17.548Z,-1.05
2023-01-21T05:57:59.514Z,-0.94
2023-01-21T05:58:41.168Z,-1.10
2023-01-21T05:59:22.908Z,-1.02
2023-01-21T06:00:05.049Z,-0.94
2023-01-21T06:00:48.360Z,-1.00
2023-01-21T06:01:30.006Z,-0.87
2023-01-21T06:02:11.720Z,-0.86
2023-01-21T06:02:53.390Z,-0.99
2023-01-21T06:03:35.991Z,-0.86
2023-01-21T06:04:17.719Z,-1.05
2023-01-21T06:04:59.408Z,-0.87
2023-01-21T06:05:41.738Z,-1.02
2023-01-21T06:06:23.403Z,-1.00
2023-01-21T06:07:05.054Z,-0.96
2023-01-21T06:07:46.871Z,-1.10
2023-01-21T06:08:28.512Z,-1.10
2023-01-21T06:09:10.285Z,-1.31
2023-01-21T06:09:54.912Z,-1.13
2023-01-21T06:10:37.161Z,-1.20
2023-01-21T06:11:18.887Z,-1.18
2023-01-21T06:12:00.515Z,-1.28
2023-01-21T06:12:44.776Z,-1.18
2023-01-21T06:13:26.501Z,-1.30
2023-01-21T06:14:08.239Z,-1.41
2023-01-21T06:14:49.869Z,-1.20
2023-01-21T06:15:33.610Z,-1.34
2023-01-21T06:16:15.352Z,-1.30
2023-01-21T06:16:57.100Z,-1.32
2023-01-21T06:17:40.245Z,-1.34
2023-01-21T06:18:22.880Z,-1.29
2023-01-21T06:19:04.525Z,-1.43
2023-01-21T06:19:46.152Z,-1.23
2023-01-21T06:20:31.563Z,-1.69
2023-01-21T06:21:13.193Z,-1.35
2023-01-21T06:21:54.828Z,-1.36
2023-01-21T06:22:36.726Z,-1.36
2023-01-21T06:23:18.583Z,-1.31
2023-01-21T06:24:00.668Z,-1.41
2023-01-21T06:24:42.371Z,-1.34
2023-01-21T06:25:25.651Z,-1.34
2023-01-21T06:26:07.295Z,-1.27
2023-01-21T06:26:50.246Z,-1.39
2023-01-21T06:27:34.147Z,-1.29
2023-01-21T06:28:15.783Z,-1.41
2023-01-21T06:28:57.733Z,-1.28
2023-01-21T06:29:39.408Z,-1.28
2023-01-21T06:30:25.108Z,-1.34
2023-01-21T06:31:06.947Z,-1.25
2023-01-21T06:31:48.788Z,-1.23
2023-01-21T06:32:30.446Z,-1.28
2023-01-21T06:33:12.173Z,-1.24
2023-01-21T06:33:53.794Z,-1.30
2023-01-21T06:34:35.403Z,-1.27
2023-01-21T06:35:18.006Z,-1.35
2023-01-21T06:35:59.767Z,-1.32
2023-01-21T06:36:42.700Z,-1.32
2023-01-21T06:37:24.503Z,-1.27
2023-01-21T06:38:06.241Z,-1.49
2023-01-21T06:38:47.917Z,-1.35
2023-01-21T06:39:31.865Z,-1.40
2023-01-21T06:40:14.750Z,-1.68
2023-01-21T06:40:56.485Z,-1.52
2023-01-21T06:41:38.410Z,-1.75
2023-01-21T06:42:23.181Z,-1.69
2023-01-21T06:43:04.906Z,-1.59
2023-01-21T06:43:46.498Z,-1.63
2023-01-21T06:44:28.228Z,-1.66
2023-01-21T06:45:10.257Z,-1.73
2023-01-21T06:45:51.954Z,-1.70
2023-01-21T06:46:34.094Z,-1.74
2023-01-21T06:47:15.806Z,-1.90
2023-01-21T06:47:57.463Z,-1.73
2023-01-21T06:48:48.057Z,-1.95
2023-01-21T06:49:29.755Z,-1.80
2023-01-21T06:50:14.404Z,-1.88
2023-01-21T06:50:56.233Z,-1.73
2023-01-21T06:51:38.083Z,-1.79
2023-01-21T06:52:19.803Z,-1.76
2023-01-21T06:53:01.476Z,-1.74
2023-01-21T06:53:43.134Z,-1.82
2023-01-21T06:54:24.774Z,-1.93
2023-01-21T06:55:06.720Z,-1.96
2023-01-21T06:55:48.443Z,-1.78
2023-01-21T06:56:30.238Z,-1.83
2023-01-21T06:57:12.194Z,-1.85
2023-01-21T06:57:54.147Z,-1.81
2023-01-21T06:58:35.825Z,-1.81
2023-01-21T06:59:17.598Z,-1.95
2023-01-21T06:59:59.267Z,-1.87
2023-01-21T07:00:40.910Z,-1.86
2023-01-21T07:01:22.648Z,-2.00
2023-01-21T07:02:04.358Z,-1.90
2023-01-21T07:02:46.131Z,-2.03
2023-01-21T07:03:29.131Z,-1.83
2023-01-21T07:04:10.911Z,-1.86
2023-01-21T07:04:52.658Z,-1.94
2023-01-21T07:05:34.390Z,-1.86
2023-01-21T07:06:16.008Z,-1.89
2023-01-21T07:06:57.845Z,-1.80
2023-01-21T07:07:39.499Z,-1.96
2023-01-21T07:08:21.212Z,-1.75
2023-01-21T07:09:03.872Z,-1.75
2023-01-21T07:09:45.600Z,-1.93
2023-01-21T07:10:27.299Z,-1.81
2023-01-21T07:11:09.035Z,-1.74
2023-01-21T07:11:50.845Z,-1.77
2023-01-21T07:12:32.618Z,-1.76
2023-01-21T07:13:14.276Z,-2.18
2023-01-21T07:13:56.004Z,-1.93
2023-01-21T07:14:37.755Z,-2.04
2023-01-21T07:15:19.824Z,-1.84
2023-01-21T07:16:01.851Z,-1.81
2023-01-21T07:16:43.645Z,-1.81
2023-01-21T07:17:25.376Z,-1.82
2023-01-21T07:18:07.116Z,-1.81
2023-01-21T07:18:48.862Z,-2.06
2023-01-21T07:19:30.584Z,-1.95
2023-01-21T07:20:17.672Z,-1.86
2023-01-21T07:20:59.403Z,-1.99
2023-01-21T07:21:43.834Z,-1.89
2023-01-21T07:22:25.488Z,-1.92
2023-01-21T07:23:07.147Z,-1.81
2023-01-21T07:23:51.602Z,-1.79
2023-01-21T07:24:33.288Z,-1.79
2023-01-21T07:25:16.590Z,-1.87
2023-01-21T07:25:58.363Z,-1.83
2023-01-21T07:26:41.491Z,-2.04
2023-01-21T07:27:23.233Z,-2.00
2023-01-21T07:28:05.040Z,-1.92
2023-01-21T07:28:46.733Z,-1.98
2023-01-21T07:29:28.775Z,-1.97
2023-01-21T07:30:16.626Z,-2.09
2023-01-21T07:31:00.180Z,-2.00
2023-01-21T07:31:42.064Z,-2.00
2023-01-21T07:32:23.782Z,-2.05
2023-01-21T07:33:06.908Z,-1.95
2023-01-21T07:33:48.544Z,-1.98
2023-01-21T07:34:30.238Z,-1.91
2023-01-21T07:35:12.181Z,-2.01
2023-01-21T07:35:54.337Z,-1.93
2023-01-21T07:36:36.090Z,-1.90
2023-01-21T07:37:17.742Z,-1.94
2023-01-21T07:37:59.626Z,-2.01
2023-01-21T07:38:41.341Z,-2.18
2023-01-21T07:39:22.981Z,-1.85
2023-01-21T07:40:04.973Z,-1.82
2023-01-21T07:40:50.237Z,-1.82
2023-01-21T07:41:31.994Z,-1.81
2023-01-21T07:42:13.679Z,-1.81
2023-01-21T07:42:56.301Z,-2.09
2023-01-21T07:43:39.001Z,-2.06
2023-01-21T07:44:20.899Z,-1.86
2023-01-21T07:45:03.852Z,-1.99
2023-01-21T07:45:45.967Z,-1.92
2023-01-21T07:46:27.894Z,-1.86
2023-01-21T07:47:10.611Z,-2.09
2023-01-21T07:47:52.774Z,-1.87
2023-01-21T07:48:34.937Z,-2.01
2023-01-21T07:49:18.219Z,-1.96
2023-01-21T07:50:04.838Z,-2.10
2023-01-21T07:50:46.692Z,-1.88
2023-01-21T07:51:30.612Z,-1.83
2023-01-21T07:52:12.338Z,-1.96
2023-01-21T07:52:54.781Z,-1.94
2023-01-21T07:53:36.581Z,-1.88
2023-01-21T07:54:18.271Z,-1.74
2023-01-21T07:55:01.570Z,-1.70
2023-01-21T07:55:43.420Z,-1.78
2023-01-21T07:56:26.805Z,-1.73
2023-01-21T07:57:08.631Z,-1.95
2023-01-21T07:57:50.300Z,-1.84
2023-01-21T07:58:32.117Z,-2.04
2023-01-21T07:59:15.055Z,-1.89
2023-01-21T07:59:56.767Z,-1.94
2023-01-21T08:00:38.387Z,-2.05
2023-01-21T08:01:20.116Z,-2.17
2023-01-21T08:02:02.100Z,-2.02
2023-01-21T08:02:44.694Z,-2.04
2023-01-21T08:03:26.437Z,-2.21
2023-01-21T08:04:09.745Z,-2.24
2023-01-21T08:04:51.472Z,-2.03
2023-01-21T08:05:33.209Z,-2.04
2023-01-21T08:06:15.352Z,-2.10
2023-01-21T08:06:57.277Z,-1.90
2023-01-21T08:07:38.961Z,-1.97
2023-01-21T08:08:20.704Z,-1.79
2023-01-21T08:09:08.308Z,-1.73
2023-01-21T08:09:50.005Z,-1.78
2023-01-21T08:10:31.657Z,-1.82
2023-01-21T08:11:13.359Z,-1.64
2023-01-21T08:11:55.190Z,-1.64
2023-01-21T08:12:36.887Z,-1.74
2023-01-21T08:13:18.753Z,-1.83
2023-01-21T08:14:00.596Z,-1.89
2023-01-21T08:14:42.339Z,-1.63
2023-01-21T08:15:24.043Z,-1.77
2023-01-21T08:16:11.583Z,-1.60
2023-01-21T08:16:53.241Z,-1.78
2023-01-21T08:17:39.046Z,-1.64
2023-01-21T08:18:27.714Z,-1.50
2023-01-21T08:19:09.450Z,-1.38
2023-01-21T08:19:51.067Z,-1.34
2023-01-21T08:20:32.758Z,-1.29
2023-01-21T08:21:14.525Z,-1.25
2023-01-21T08:21:56.189Z,-1.20
2023-01-21T08:22:38.231Z,-1.22
2023-01-21T08:23:22.576Z,-1.36
2023-01-21T08:24:04.753Z,-1.15
2023-01-21T08:24:46.391Z,-1.28
2023-01-21T08:25:28.116Z,-1.35
2023-01-21T08:26:09.870Z,-1.02
2023-01-21T08:26:51.616Z,-1.07
2023-01-21T08:27:33.425Z,-0.99
2023-01-21T08:28:15.112Z,-1.27
2023-01-21T08:28:56.836Z,-1.00
2023-01-21T08:29:38.550Z,-1.16
2023-01-21T08:30:23.109Z,-1.05
2023-01-21T08:31:07.332Z,-0.98
2023-01-21T08:31:49.156Z,-0.96
2023-01-21T08:32:31.662Z,-0.92
2023-01-21T08:33:13.469Z,-0.89
2023-01-21T08:33:55.448Z,-0.98
2023-01-21T08:34:37.209Z,-1.00
2023-01-21T08:35:19.204Z,-0.89
2023-01-21T08:36:06.206Z,-0.92
2023-01-21T08:36:47.879Z,-0.93
2023-01-21T08:37:29.613Z,-0.95
2023-01-21T08:38:11.278Z,-0.95
2023-01-21T08:38:54.014Z,-1.15
2023-01-21T08:39:35.727Z,-1.14
2023-01-21T08:40:17.517Z,-1.04
2023-01-21T08:40:59.252Z,-0.88
2023-01-21T08:41:40.915Z,-0.85
2023-01-21T08:42:22.630Z,-0.90
2023-01-21T08:43:07.244Z,-0.80
2023-01-21T08:43:49.009Z,-0.82
2023-01-21T08:44:30.788Z,-0.73
2023-01-21T08:45:15.151Z,-0.75
2023-01-21T08:45:59.373Z,-0.67
2023-01-21T08:46:41.047Z,-0.63
2023-01-21T08:47:22.763Z,-0.61
2023-01-21T08:48:04.800Z,-0.61
2023-01-21T08:48:46.585Z,-0.52
2023-01-21T08:49:28.275Z,-0.53
2023-01-21T08:50:10.951Z,-0.65
2023-01-21T08:50:52.637Z,-0.44
2023-01-21T08:51:34.454Z,-0.31
2023-01-21T08:52:17.121Z,-0.51
2023-01-21T08:52:58.928Z,-0.27
2023-01-21T08:53:40.663Z,-0.15
2023-01-21T08:54:22.495Z,-0.28
2023-01-21T08:55:04.365Z,-0.21
2023-01-21T08:55:46.049Z,-0.08
2023-01-21T08:56:27.830Z,-0.10
2023-01-21T08:57:10.342Z,0.09
2023-01-21T08:57:55.720Z,-0.08
2023-01-21T08:58:37.501Z,0.11
2023-01-21T08:59:21.840Z,0.06
2023-01-21T09:00:04.108Z,0.02
2023-01-21T09:00:46.130Z,0.16
2023-01-21T09:01:29.054Z,0.22
2023-01-21T09:02:11.450Z,0.20
2023-01-21T09:02:53.634Z,0.24
2023-01-21T09:03:35.439Z,0.24
2023-01-21T09:04:18.306Z,0.11
2023-01-21T09:05:00.030Z,0.28
2023-01-21T09:05:41.732Z,0.40
2023-01-21T09:06:25.297Z,0.34
2023-01-21T09:07:06.978Z,0.55
2023-01-21T09:07:48.664Z,0.45
2023-01-21T09:08:30.568Z,0.48
2023-01-21T09:09:12.366Z,0.66
2023-01-21T09:09:53.986Z,0.71
2023-01-21T09:10:54.189Z,0.75
2023-01-21T09:11:38.371Z,0.70
2023-01-21T09:12:20.068Z,0.65
2023-01-21T09:13:06.512Z,0.63
2023-01-21T09:13:48.279Z,0.60
2023-01-21T09:14:30.700Z,0.56
2023-01-21T09:15:12.410Z,0.51
2023-01-21T09:15:54.215Z,0.34
2023-01-21T09:16:36.589Z,0.40
2023-01-21T09:17:18.426Z,0.27
2023-01-21T09:18:00.270Z,0.26
2023-01-21T09:18:42.888Z,0.27
2023-01-21T09:19:25.117Z,0.18
2023-01-21T09:20:07.172Z,0.07
2023-01-21T09:20:49.021Z,0.18
2023-01-21T09:21:31.924Z,0.16
2023-01-21T09:22:13.836Z,0.13
2023-01-21T09:22:55.576Z,-0.01
2023-01-21T09:23:41.507Z,0.08
2023-01-21T09:24:23.666Z,-0.01
2023-01-21T09:25:10.155Z,-0.08
2023-01-21T09:26:00.880Z,-0.01
2023-01-21T09:26:44.118Z,-0.12
2023-01-21T09:27:27.556Z,-0.07
2023-01-21T09:28:09.257Z,-0.15
2023-01-21T09:28:56.206Z,-0.03
2023-01-21T09:29:37.950Z,-0.20
2023-01-21T09:30:19.667Z,-0.08
2023-01-21T09:31:06.668Z,0.05
2023-01-21T09:31:48.379Z,-0.03